Index of /20260429/WXO-DD/model_rdps/10km/00/057
Name Last modified Size Description
Parent Directory -
20260429T00Z_MSC_RDPS_AbsoluteVorticity_IsbL-0250_RLatLon0.09_PT057H.grib2 2026-04-29 02:56 495K
20260429T00Z_MSC_RDPS_AbsoluteVorticity_IsbL-0500_RLatLon0.09_PT057H.grib2 2026-04-29 02:56 560K
20260429T00Z_MSC_RDPS_AbsoluteVorticity_IsbL-0700_RLatLon0.09_PT057H.grib2 2026-04-29 02:56 613K
20260429T00Z_MSC_RDPS_AbsoluteVorticity_IsbL-0850_RLatLon0.09_PT057H.grib2 2026-04-29 02:56 771K
20260429T00Z_MSC_RDPS_AirTemp_AGL-120m_RLatLon0.09_PT057H.grib2 2026-04-29 02:56 376K
20260429T00Z_MSC_RDPS_AirTemp_AGL-2m_RLatLon0.09_PT057H.grib2 2026-04-29 02:56 631K
20260429T00Z_MSC_RDPS_AirTemp_AGL-40m_RLatLon0.09_PT057H.grib2 2026-04-29 02:56 396K
20260429T00Z_MSC_RDPS_AirTemp_AGL-80m_RLatLon0.09_PT057H.grib2 2026-04-29 02:56 385K
20260429T00Z_MSC_RDPS_AirTemp_IsbL-0001_RLatLon0.09_PT057H.grib2 2026-04-29 02:56 299K
20260429T00Z_MSC_RDPS_AirTemp_IsbL-0005_RLatLon0.09_PT057H.grib2 2026-04-29 02:56 291K
20260429T00Z_MSC_RDPS_AirTemp_IsbL-0010_RLatLon0.09_PT057H.grib2 2026-04-29 02:56 301K
20260429T00Z_MSC_RDPS_AirTemp_IsbL-0020_RLatLon0.09_PT057H.grib2 2026-04-29 02:56 317K
20260429T00Z_MSC_RDPS_AirTemp_IsbL-0030_RLatLon0.09_PT057H.grib2 2026-04-29 02:56 338K
20260429T00Z_MSC_RDPS_AirTemp_IsbL-0050_RLatLon0.09_PT057H.grib2 2026-04-29 02:56 314K
20260429T00Z_MSC_RDPS_AirTemp_IsbL-0100_RLatLon0.09_PT057H.grib2 2026-04-29 02:56 421K
20260429T00Z_MSC_RDPS_AirTemp_IsbL-0150_RLatLon0.09_PT057H.grib2 2026-04-29 02:56 415K
20260429T00Z_MSC_RDPS_AirTemp_IsbL-0175_RLatLon0.09_PT057H.grib2 2026-04-29 02:56 410K
20260429T00Z_MSC_RDPS_AirTemp_IsbL-0200_RLatLon0.09_PT057H.grib2 2026-04-29 02:56 413K
20260429T00Z_MSC_RDPS_AirTemp_IsbL-0225_RLatLon0.09_PT057H.grib2 2026-04-29 02:56 412K
20260429T00Z_MSC_RDPS_AirTemp_IsbL-0250_RLatLon0.09_PT057H.grib2 2026-04-29 02:56 419K
20260429T00Z_MSC_RDPS_AirTemp_IsbL-0275_RLatLon0.09_PT057H.grib2 2026-04-29 02:56 400K
20260429T00Z_MSC_RDPS_AirTemp_IsbL-0300_RLatLon0.09_PT057H.grib2 2026-04-29 02:56 408K
20260429T00Z_MSC_RDPS_AirTemp_IsbL-0350_RLatLon0.09_PT057H.grib2 2026-04-29 02:56 421K
20260429T00Z_MSC_RDPS_AirTemp_IsbL-0400_RLatLon0.09_PT057H.grib2 2026-04-29 02:56 423K
20260429T00Z_MSC_RDPS_AirTemp_IsbL-0450_RLatLon0.09_PT057H.grib2 2026-04-29 02:56 394K
20260429T00Z_MSC_RDPS_AirTemp_IsbL-0500_RLatLon0.09_PT057H.grib2 2026-04-29 02:56 402K
20260429T00Z_MSC_RDPS_AirTemp_IsbL-0550_RLatLon0.09_PT057H.grib2 2026-04-29 02:56 419K
20260429T00Z_MSC_RDPS_AirTemp_IsbL-0600_RLatLon0.09_PT057H.grib2 2026-04-29 02:56 440K
20260429T00Z_MSC_RDPS_AirTemp_IsbL-0650_RLatLon0.09_PT057H.grib2 2026-04-29 02:56 456K
20260429T00Z_MSC_RDPS_AirTemp_IsbL-0700_RLatLon0.09_PT057H.grib2 2026-04-29 02:56 480K
20260429T00Z_MSC_RDPS_AirTemp_IsbL-0750_RLatLon0.09_PT057H.grib2 2026-04-29 02:56 515K
20260429T00Z_MSC_RDPS_AirTemp_IsbL-0800_RLatLon0.09_PT057H.grib2 2026-04-29 02:56 444K
20260429T00Z_MSC_RDPS_AirTemp_IsbL-0850_RLatLon0.09_PT057H.grib2 2026-04-29 02:56 496K
20260429T00Z_MSC_RDPS_AirTemp_IsbL-0875_RLatLon0.09_PT057H.grib2 2026-04-29 02:56 517K
20260429T00Z_MSC_RDPS_AirTemp_IsbL-0900_RLatLon0.09_PT057H.grib2 2026-04-29 02:56 526K
20260429T00Z_MSC_RDPS_AirTemp_IsbL-0925_RLatLon0.09_PT057H.grib2 2026-04-29 02:56 526K
20260429T00Z_MSC_RDPS_AirTemp_IsbL-0950_RLatLon0.09_PT057H.grib2 2026-04-29 02:56 527K
20260429T00Z_MSC_RDPS_AirTemp_IsbL-0970_RLatLon0.09_PT057H.grib2 2026-04-29 02:56 520K
20260429T00Z_MSC_RDPS_AirTemp_IsbL-0985_RLatLon0.09_PT057H.grib2 2026-04-29 02:56 508K
20260429T00Z_MSC_RDPS_AirTemp_IsbL-1000_RLatLon0.09_PT057H.grib2 2026-04-29 02:56 493K
20260429T00Z_MSC_RDPS_AirTemp_IsbL-1015_RLatLon0.09_PT057H.grib2 2026-04-29 02:56 491K
20260429T00Z_MSC_RDPS_Albedo_Sfc_RLatLon0.09_PT057H.grib2 2026-04-29 02:56 161K
20260429T00Z_MSC_RDPS_CAPE_Sfc_RLatLon0.09_PT057H.grib2 2026-04-29 02:56 1.5M
20260429T00Z_MSC_RDPS_CIN_Sfc_RLatLon0.09_PT057H.grib2 2026-04-29 02:56 1.1M
20260429T00Z_MSC_RDPS_CloudWater_EAtm_RLatLon0.09_PT057H.grib2 2026-04-29 02:56 219K
20260429T00Z_MSC_RDPS_ConvectivePrecip-Accum_Sfc_RLatLon0.09_PT057H.grib2 2026-04-29 02:56 1.1M
20260429T00Z_MSC_RDPS_DewPointDepression_AGL-2m_RLatLon0.09_PT057H.grib2 2026-04-29 02:56 394K
20260429T00Z_MSC_RDPS_DewPointDepression_IsbL-0001_RLatLon0.09_PT057H.grib2 2026-04-29 02:56 193
20260429T00Z_MSC_RDPS_DewPointDepression_IsbL-0005_RLatLon0.09_PT057H.grib2 2026-04-29 02:56 193
20260429T00Z_MSC_RDPS_DewPointDepression_IsbL-0010_RLatLon0.09_PT057H.grib2 2026-04-29 02:56 193
20260429T00Z_MSC_RDPS_DewPointDepression_IsbL-0020_RLatLon0.09_PT057H.grib2 2026-04-29 02:56 193
20260429T00Z_MSC_RDPS_DewPointDepression_IsbL-0030_RLatLon0.09_PT057H.grib2 2026-04-29 02:56 193
20260429T00Z_MSC_RDPS_DewPointDepression_IsbL-0050_RLatLon0.09_PT057H.grib2 2026-04-29 02:56 79K
20260429T00Z_MSC_RDPS_DewPointDepression_IsbL-0100_RLatLon0.09_PT057H.grib2 2026-04-29 02:56 127K
20260429T00Z_MSC_RDPS_DewPointDepression_IsbL-0150_RLatLon0.09_PT057H.grib2 2026-04-29 02:56 147K
20260429T00Z_MSC_RDPS_DewPointDepression_IsbL-0175_RLatLon0.09_PT057H.grib2 2026-04-29 02:56 178K
20260429T00Z_MSC_RDPS_DewPointDepression_IsbL-0200_RLatLon0.09_PT057H.grib2 2026-04-29 02:56 214K
20260429T00Z_MSC_RDPS_DewPointDepression_IsbL-0225_RLatLon0.09_PT057H.grib2 2026-04-29 02:56 255K
20260429T00Z_MSC_RDPS_DewPointDepression_IsbL-0250_RLatLon0.09_PT057H.grib2 2026-04-29 02:56 296K
20260429T00Z_MSC_RDPS_DewPointDepression_IsbL-0275_RLatLon0.09_PT057H.grib2 2026-04-29 02:56 304K
20260429T00Z_MSC_RDPS_DewPointDepression_IsbL-0300_RLatLon0.09_PT057H.grib2 2026-04-29 02:56 327K
20260429T00Z_MSC_RDPS_DewPointDepression_IsbL-0350_RLatLon0.09_PT057H.grib2 2026-04-29 02:56 330K
20260429T00Z_MSC_RDPS_DewPointDepression_IsbL-0400_RLatLon0.09_PT057H.grib2 2026-04-29 02:56 340K
20260429T00Z_MSC_RDPS_DewPointDepression_IsbL-0450_RLatLon0.09_PT057H.grib2 2026-04-29 02:56 348K
20260429T00Z_MSC_RDPS_DewPointDepression_IsbL-0500_RLatLon0.09_PT057H.grib2 2026-04-29 02:56 352K
20260429T00Z_MSC_RDPS_DewPointDepression_IsbL-0550_RLatLon0.09_PT057H.grib2 2026-04-29 02:56 361K
20260429T00Z_MSC_RDPS_DewPointDepression_IsbL-0600_RLatLon0.09_PT057H.grib2 2026-04-29 02:56 373K
20260429T00Z_MSC_RDPS_DewPointDepression_IsbL-0650_RLatLon0.09_PT057H.grib2 2026-04-29 02:56 377K
20260429T00Z_MSC_RDPS_DewPointDepression_IsbL-0700_RLatLon0.09_PT057H.grib2 2026-04-29 02:56 386K
20260429T00Z_MSC_RDPS_DewPointDepression_IsbL-0750_RLatLon0.09_PT057H.grib2 2026-04-29 02:56 404K
20260429T00Z_MSC_RDPS_DewPointDepression_IsbL-0800_RLatLon0.09_PT057H.grib2 2026-04-29 02:56 434K
20260429T00Z_MSC_RDPS_DewPointDepression_IsbL-0850_RLatLon0.09_PT057H.grib2 2026-04-29 02:56 465K
20260429T00Z_MSC_RDPS_DewPointDepression_IsbL-0875_RLatLon0.09_PT057H.grib2 2026-04-29 02:56 470K
20260429T00Z_MSC_RDPS_DewPointDepression_IsbL-0900_RLatLon0.09_PT057H.grib2 2026-04-29 02:56 461K
20260429T00Z_MSC_RDPS_DewPointDepression_IsbL-0925_RLatLon0.09_PT057H.grib2 2026-04-29 02:56 448K
20260429T00Z_MSC_RDPS_DewPointDepression_IsbL-0950_RLatLon0.09_PT057H.grib2 2026-04-29 02:56 443K
20260429T00Z_MSC_RDPS_DewPointDepression_IsbL-0970_RLatLon0.09_PT057H.grib2 2026-04-29 02:56 434K
20260429T00Z_MSC_RDPS_DewPointDepression_IsbL-0985_RLatLon0.09_PT057H.grib2 2026-04-29 02:56 429K
20260429T00Z_MSC_RDPS_DewPointDepression_IsbL-1000_RLatLon0.09_PT057H.grib2 2026-04-29 02:56 424K
20260429T00Z_MSC_RDPS_DewPointDepression_IsbL-1015_RLatLon0.09_PT057H.grib2 2026-04-29 02:56 415K
20260429T00Z_MSC_RDPS_DewPoint_AGL-2m_RLatLon0.09_PT057H.grib2 2026-04-29 02:56 397K
20260429T00Z_MSC_RDPS_DownwardLongwaveRadiationFlux-Accum_Sfc_RLatLon0.09_PT057H.grib2 2026-04-29 02:56 395K
20260429T00Z_MSC_RDPS_DownwardShortwaveRadiationFlux-Accum_NTAtm_RLatLon0.09_PT057H.grib2 2026-04-29 02:56 96K
20260429T00Z_MSC_RDPS_DownwardShortwaveRadiationFlux-Accum_Sfc_RLatLon0.09_PT057H.grib2 2026-04-29 02:56 563K
20260429T00Z_MSC_RDPS_FreezingRain-Accum1h_Sfc_RLatLon0.09_PT057H.grib2 2026-04-29 02:56 46K
20260429T00Z_MSC_RDPS_FreezingRain-Accum3h_Sfc_RLatLon0.09_PT057H.grib2 2026-04-29 02:56 51K
20260429T00Z_MSC_RDPS_FreezingRain-Accum_Sfc_RLatLon0.09_PT057H.grib2 2026-04-29 02:56 199K
20260429T00Z_MSC_RDPS_GeopotentialHeight_IsbL-0001_RLatLon0.09_PT057H.grib2 2026-04-29 02:56 309K
20260429T00Z_MSC_RDPS_GeopotentialHeight_IsbL-0005_RLatLon0.09_PT057H.grib2 2026-04-29 02:56 302K
20260429T00Z_MSC_RDPS_GeopotentialHeight_IsbL-0010_RLatLon0.09_PT057H.grib2 2026-04-29 02:56 304K
20260429T00Z_MSC_RDPS_GeopotentialHeight_IsbL-0020_RLatLon0.09_PT057H.grib2 2026-04-29 02:56 304K
20260429T00Z_MSC_RDPS_GeopotentialHeight_IsbL-0030_RLatLon0.09_PT057H.grib2 2026-04-29 02:56 305K
20260429T00Z_MSC_RDPS_GeopotentialHeight_IsbL-0050_RLatLon0.09_PT057H.grib2 2026-04-29 02:56 307K
20260429T00Z_MSC_RDPS_GeopotentialHeight_IsbL-0100_RLatLon0.09_PT057H.grib2 2026-04-29 02:56 283K
20260429T00Z_MSC_RDPS_GeopotentialHeight_IsbL-0150_RLatLon0.09_PT057H.grib2 2026-04-29 02:56 226K
20260429T00Z_MSC_RDPS_GeopotentialHeight_IsbL-0175_RLatLon0.09_PT057H.grib2 2026-04-29 02:56 259K
20260429T00Z_MSC_RDPS_GeopotentialHeight_IsbL-0200_RLatLon0.09_PT057H.grib2 2026-04-29 02:56 262K
20260429T00Z_MSC_RDPS_GeopotentialHeight_IsbL-0225_RLatLon0.09_PT057H.grib2 2026-04-29 02:56 264K
20260429T00Z_MSC_RDPS_GeopotentialHeight_IsbL-0250_RLatLon0.09_PT057H.grib2 2026-04-29 02:56 265K
20260429T00Z_MSC_RDPS_GeopotentialHeight_IsbL-0275_RLatLon0.09_PT057H.grib2 2026-04-29 02:56 264K
20260429T00Z_MSC_RDPS_GeopotentialHeight_IsbL-0300_RLatLon0.09_PT057H.grib2 2026-04-29 02:56 264K
20260429T00Z_MSC_RDPS_GeopotentialHeight_IsbL-0350_RLatLon0.09_PT057H.grib2 2026-04-29 02:56 230K
20260429T00Z_MSC_RDPS_GeopotentialHeight_IsbL-0400_RLatLon0.09_PT057H.grib2 2026-04-29 02:56 227K
20260429T00Z_MSC_RDPS_GeopotentialHeight_IsbL-0450_RLatLon0.09_PT057H.grib2 2026-04-29 02:56 294K
20260429T00Z_MSC_RDPS_GeopotentialHeight_IsbL-0500_RLatLon0.09_PT057H.grib2 2026-04-29 02:56 290K
20260429T00Z_MSC_RDPS_GeopotentialHeight_IsbL-0550_RLatLon0.09_PT057H.grib2 2026-04-29 02:56 286K
20260429T00Z_MSC_RDPS_GeopotentialHeight_IsbL-0600_RLatLon0.09_PT057H.grib2 2026-04-29 02:56 255K
20260429T00Z_MSC_RDPS_GeopotentialHeight_IsbL-0650_RLatLon0.09_PT057H.grib2 2026-04-29 02:56 253K
20260429T00Z_MSC_RDPS_GeopotentialHeight_IsbL-0700_RLatLon0.09_PT057H.grib2 2026-04-29 02:56 252K
20260429T00Z_MSC_RDPS_GeopotentialHeight_IsbL-0750_RLatLon0.09_PT057H.grib2 2026-04-29 02:56 335K
20260429T00Z_MSC_RDPS_GeopotentialHeight_IsbL-0800_RLatLon0.09_PT057H.grib2 2026-04-29 02:56 342K
20260429T00Z_MSC_RDPS_GeopotentialHeight_IsbL-0850_RLatLon0.09_PT057H.grib2 2026-04-29 02:56 353K
20260429T00Z_MSC_RDPS_GeopotentialHeight_IsbL-0875_RLatLon0.09_PT057H.grib2 2026-04-29 02:56 356K
20260429T00Z_MSC_RDPS_GeopotentialHeight_IsbL-0900_RLatLon0.09_PT057H.grib2 2026-04-29 02:56 360K
20260429T00Z_MSC_RDPS_GeopotentialHeight_IsbL-0925_RLatLon0.09_PT057H.grib2 2026-04-29 02:56 361K
20260429T00Z_MSC_RDPS_GeopotentialHeight_IsbL-0950_RLatLon0.09_PT057H.grib2 2026-04-29 02:56 366K
20260429T00Z_MSC_RDPS_GeopotentialHeight_IsbL-0970_RLatLon0.09_PT057H.grib2 2026-04-29 02:56 371K
20260429T00Z_MSC_RDPS_GeopotentialHeight_IsbL-0985_RLatLon0.09_PT057H.grib2 2026-04-29 02:56 379K
20260429T00Z_MSC_RDPS_GeopotentialHeight_IsbL-1000_RLatLon0.09_PT057H.grib2 2026-04-29 02:56 391K
20260429T00Z_MSC_RDPS_GeopotentialHeight_IsbL-1015_RLatLon0.09_PT057H.grib2 2026-04-29 02:56 404K
20260429T00Z_MSC_RDPS_Humidex_Sfc_RLatLon0.09_PT057H.grib2 2026-04-29 02:56 2.4M
20260429T00Z_MSC_RDPS_IcePellets-Accum1h_Sfc_RLatLon0.09_PT057H.grib2 2026-04-29 02:56 5.4K
20260429T00Z_MSC_RDPS_IcePellets-Accum3h_Sfc_RLatLon0.09_PT057H.grib2 2026-04-29 02:56 5.5K
20260429T00Z_MSC_RDPS_IcePellets-Accum_Sfc_RLatLon0.09_PT057H.grib2 2026-04-29 02:56 27K
20260429T00Z_MSC_RDPS_KIndex_Sfc_RLatLon0.09_PT057H.grib2 2026-04-29 02:56 2.5M
20260429T00Z_MSC_RDPS_LatentHeatNetFlux_Sfc_RLatLon0.09_PT057H.grib2 2026-04-29 02:56 404K
20260429T00Z_MSC_RDPS_LiftedIndex-MU-VT_IsbL-0500_RLatLon0.09_PT057H.grib2 2026-04-29 02:56 2.4M
20260429T00Z_MSC_RDPS_NetLongwaveRadiationFlux-Accum_Sfc_RLatLon0.09_PT057H.grib2 2026-04-29 02:56 557K
20260429T00Z_MSC_RDPS_NetShortwaveRadiationFlux-Accum_Sfc_RLatLon0.09_PT057H.grib2 2026-04-29 02:56 564K
20260429T00Z_MSC_RDPS_PlanetaryBoundaryLayerHeight_Sfc_RLatLon0.09_PT057H.grib2 2026-04-29 02:56 1.1M
20260429T00Z_MSC_RDPS_Precip-Accum1h_Sfc_RLatLon0.09_PT057H.grib2 2026-04-29 02:56 1.2M
20260429T00Z_MSC_RDPS_Precip-Accum3h_Sfc_RLatLon0.09_PT057H.grib2 2026-04-29 02:56 1.3M
20260429T00Z_MSC_RDPS_Precip-Accum_Sfc_RLatLon0.09_PT057H.grib2 2026-04-29 02:56 2.1M
20260429T00Z_MSC_RDPS_PrecipRate_Sfc_RLatLon0.09_PT057H.grib2 2026-04-29 02:56 131K
20260429T00Z_MSC_RDPS_PrecipType-Instant_Sfc_RLatLon0.09_PT057H.grib2 2026-04-29 02:56 575K
20260429T00Z_MSC_RDPS_Pressure-Trend3h_Sfc_RLatLon0.09_PT057H.grib2 2026-04-29 02:56 1.2M
20260429T00Z_MSC_RDPS_Pressure_MSL_RLatLon0.09_PT057H.grib2 2026-04-29 02:56 323K
20260429T00Z_MSC_RDPS_Pressure_PVU-1.5_RLatLon0.09_PT057H.grib2 2026-04-29 02:56 2.3M
20260429T00Z_MSC_RDPS_Pressure_PVU-1_RLatLon0.09_PT057H.grib2 2026-04-29 02:56 2.4M
20260429T00Z_MSC_RDPS_Pressure_PVU-2_RLatLon0.09_PT057H.grib2 2026-04-29 02:56 2.4M
20260429T00Z_MSC_RDPS_Pressure_Sfc_RLatLon0.09_PT057H.grib2 2026-04-29 02:56 499K
20260429T00Z_MSC_RDPS_RadiativeTemp_Sfc_RLatLon0.09_PT057H.grib2 2026-04-29 02:56 311K
20260429T00Z_MSC_RDPS_Rain-Accum1h_Sfc_RLatLon0.09_PT057H.grib2 2026-04-29 02:56 536K
20260429T00Z_MSC_RDPS_Rain-Accum3h_Sfc_RLatLon0.09_PT057H.grib2 2026-04-29 02:56 598K
20260429T00Z_MSC_RDPS_Rain-Accum_Sfc_RLatLon0.09_PT057H.grib2 2026-04-29 02:56 1.6M
20260429T00Z_MSC_RDPS_RelativeHumidity_AGL-2m_RLatLon0.09_PT057H.grib2 2026-04-29 02:56 1.0M
20260429T00Z_MSC_RDPS_RelativeHumidity_IsbL-0010_RLatLon0.09_PT057H.grib2 2026-04-29 02:56 635K
20260429T00Z_MSC_RDPS_RelativeHumidity_IsbL-0020_RLatLon0.09_PT057H.grib2 2026-04-29 02:56 675K
20260429T00Z_MSC_RDPS_RelativeHumidity_IsbL-0030_RLatLon0.09_PT057H.grib2 2026-04-29 02:56 606K
20260429T00Z_MSC_RDPS_RelativeHumidity_IsbL-0050_RLatLon0.09_PT057H.grib2 2026-04-29 02:56 315K
20260429T00Z_MSC_RDPS_RelativeHumidity_IsbL-0100_RLatLon0.09_PT057H.grib2 2026-04-29 02:56 276K
20260429T00Z_MSC_RDPS_RelativeHumidity_IsbL-0150_RLatLon0.09_PT057H.grib2 2026-04-29 02:56 396K
20260429T00Z_MSC_RDPS_RelativeHumidity_IsbL-0175_RLatLon0.09_PT057H.grib2 2026-04-29 02:56 463K
20260429T00Z_MSC_RDPS_RelativeHumidity_IsbL-0200_RLatLon0.09_PT057H.grib2 2026-04-29 02:56 547K
20260429T00Z_MSC_RDPS_RelativeHumidity_IsbL-0225_RLatLon0.09_PT057H.grib2 2026-04-29 02:56 617K
20260429T00Z_MSC_RDPS_RelativeHumidity_IsbL-0250_RLatLon0.09_PT057H.grib2 2026-04-29 02:56 689K
20260429T00Z_MSC_RDPS_RelativeHumidity_IsbL-0275_RLatLon0.09_PT057H.grib2 2026-04-29 02:56 717K
20260429T00Z_MSC_RDPS_RelativeHumidity_IsbL-0300_RLatLon0.09_PT057H.grib2 2026-04-29 02:56 767K
20260429T00Z_MSC_RDPS_RelativeHumidity_IsbL-0350_RLatLon0.09_PT057H.grib2 2026-04-29 02:56 783K
20260429T00Z_MSC_RDPS_RelativeHumidity_IsbL-0400_RLatLon0.09_PT057H.grib2 2026-04-29 02:56 792K
20260429T00Z_MSC_RDPS_RelativeHumidity_IsbL-0450_RLatLon0.09_PT057H.grib2 2026-04-29 02:56 798K
20260429T00Z_MSC_RDPS_RelativeHumidity_IsbL-0500_RLatLon0.09_PT057H.grib2 2026-04-29 02:56 801K
20260429T00Z_MSC_RDPS_RelativeHumidity_IsbL-0550_RLatLon0.09_PT057H.grib2 2026-04-29 02:56 818K
20260429T00Z_MSC_RDPS_RelativeHumidity_IsbL-0600_RLatLon0.09_PT057H.grib2 2026-04-29 02:56 840K
20260429T00Z_MSC_RDPS_RelativeHumidity_IsbL-0650_RLatLon0.09_PT057H.grib2 2026-04-29 02:56 852K
20260429T00Z_MSC_RDPS_RelativeHumidity_IsbL-0700_RLatLon0.09_PT057H.grib2 2026-04-29 02:56 876K
20260429T00Z_MSC_RDPS_RelativeHumidity_IsbL-0750_RLatLon0.09_PT057H.grib2 2026-04-29 02:56 922K
20260429T00Z_MSC_RDPS_RelativeHumidity_IsbL-0800_RLatLon0.09_PT057H.grib2 2026-04-29 02:56 1.0M
20260429T00Z_MSC_RDPS_RelativeHumidity_IsbL-0850_RLatLon0.09_PT057H.grib2 2026-04-29 02:56 1.0M
20260429T00Z_MSC_RDPS_RelativeHumidity_IsbL-0875_RLatLon0.09_PT057H.grib2 2026-04-29 02:56 1.1M
20260429T00Z_MSC_RDPS_RelativeHumidity_IsbL-0900_RLatLon0.09_PT057H.grib2 2026-04-29 02:56 1.1M
20260429T00Z_MSC_RDPS_RelativeHumidity_IsbL-0925_RLatLon0.09_PT057H.grib2 2026-04-29 02:56 1.1M
20260429T00Z_MSC_RDPS_RelativeHumidity_IsbL-0950_RLatLon0.09_PT057H.grib2 2026-04-29 02:56 1.1M
20260429T00Z_MSC_RDPS_RelativeHumidity_IsbL-0970_RLatLon0.09_PT057H.grib2 2026-04-29 02:56 1.1M
20260429T00Z_MSC_RDPS_RelativeHumidity_IsbL-0985_RLatLon0.09_PT057H.grib2 2026-04-29 02:56 1.0M
20260429T00Z_MSC_RDPS_RelativeHumidity_IsbL-1000_RLatLon0.09_PT057H.grib2 2026-04-29 02:56 1.0M
20260429T00Z_MSC_RDPS_RelativeHumidity_IsbL-1015_RLatLon0.09_PT057H.grib2 2026-04-29 02:56 1.0M
20260429T00Z_MSC_RDPS_Runoff-Accum_Sfc_RLatLon0.09_PT057H.grib2 2026-04-29 02:56 56K
20260429T00Z_MSC_RDPS_SWEATIndex_Sfc_RLatLon0.09_PT057H.grib2 2026-04-29 02:56 2.4M
20260429T00Z_MSC_RDPS_SeeingIndex_EAtm_RLatLon0.09_PT057H.grib2 2026-04-29 02:56 1.0M
20260429T00Z_MSC_RDPS_SensibleHeatNetFlux_Sfc_RLatLon0.09_PT057H.grib2 2026-04-29 02:56 292K
20260429T00Z_MSC_RDPS_ShowalterIndex_IsbL-0500_RLatLon0.09_PT057H.grib2 2026-04-29 02:56 2.6M
20260429T00Z_MSC_RDPS_SkyTransparencyIndex_EAtm_RLatLon0.09_PT057H.grib2 2026-04-29 02:56 710K
20260429T00Z_MSC_RDPS_Snow-Accum1h_Sfc_RLatLon0.09_PT057H.grib2 2026-04-29 02:56 456K
20260429T00Z_MSC_RDPS_Snow-Accum3h_Sfc_RLatLon0.09_PT057H.grib2 2026-04-29 02:56 458K
20260429T00Z_MSC_RDPS_Snow-Accum_Sfc_RLatLon0.09_PT057H.grib2 2026-04-29 02:56 758K
20260429T00Z_MSC_RDPS_SnowDensity_Sfc_RLatLon0.09_PT057H.grib2 2026-04-29 02:56 181K
20260429T00Z_MSC_RDPS_SnowDepth_Sfc_RLatLon0.09_PT057H.grib2 2026-04-29 02:56 676K
20260429T00Z_MSC_RDPS_SoilTemp_DBS-0to10cm_RLatLon0.09_PT057H.grib2 2026-04-29 02:56 239K
20260429T00Z_MSC_RDPS_SoilTemp_Sfc_RLatLon0.09_PT057H.grib2 2026-04-29 02:56 274K
20260429T00Z_MSC_RDPS_SoilVolumetricIceContent_Sfc_RLatLon0.09_PT057H.grib2 2026-04-29 02:56 162K
20260429T00Z_MSC_RDPS_SoilVolumetricWaterContent_DBS-0to10cm_RLatLon0.09_PT057H.grib2 2026-04-29 02:56 269K
20260429T00Z_MSC_RDPS_SoilVolumetricWaterContent_DBS-0to1cm_RLatLon0.09_PT057H.grib2 2026-04-29 02:56 339K
20260429T00Z_MSC_RDPS_SpecificHumidity_AGL-120m_RLatLon0.09_PT057H.grib2 2026-04-29 02:56 489K
20260429T00Z_MSC_RDPS_SpecificHumidity_AGL-2m_RLatLon0.09_PT057H.grib2 2026-04-29 02:56 656K
20260429T00Z_MSC_RDPS_SpecificHumidity_AGL-40m_RLatLon0.09_PT057H.grib2 2026-04-29 02:56 494K
20260429T00Z_MSC_RDPS_SpecificHumidity_AGL-80m_RLatLon0.09_PT057H.grib2 2026-04-29 02:56 491K
20260429T00Z_MSC_RDPS_SpecificHumidity_IsbL-0001_RLatLon0.09_PT057H.grib2 2026-04-29 02:56 351K
20260429T00Z_MSC_RDPS_SpecificHumidity_IsbL-0005_RLatLon0.09_PT057H.grib2 2026-04-29 02:56 358K
20260429T00Z_MSC_RDPS_SpecificHumidity_IsbL-0010_RLatLon0.09_PT057H.grib2 2026-04-29 02:56 393K
20260429T00Z_MSC_RDPS_SpecificHumidity_IsbL-0020_RLatLon0.09_PT057H.grib2 2026-04-29 02:56 384K
20260429T00Z_MSC_RDPS_SpecificHumidity_IsbL-0030_RLatLon0.09_PT057H.grib2 2026-04-29 02:56 366K
20260429T00Z_MSC_RDPS_SpecificHumidity_IsbL-0050_RLatLon0.09_PT057H.grib2 2026-04-29 02:56 477K
20260429T00Z_MSC_RDPS_SpecificHumidity_IsbL-0100_RLatLon0.09_PT057H.grib2 2026-04-29 02:56 419K
20260429T00Z_MSC_RDPS_SpecificHumidity_IsbL-0150_RLatLon0.09_PT057H.grib2 2026-04-29 02:56 443K
20260429T00Z_MSC_RDPS_SpecificHumidity_IsbL-0175_RLatLon0.09_PT057H.grib2 2026-04-29 02:56 420K
20260429T00Z_MSC_RDPS_SpecificHumidity_IsbL-0200_RLatLon0.09_PT057H.grib2 2026-04-29 02:56 440K
20260429T00Z_MSC_RDPS_SpecificHumidity_IsbL-0225_RLatLon0.09_PT057H.grib2 2026-04-29 02:56 445K
20260429T00Z_MSC_RDPS_SpecificHumidity_IsbL-0250_RLatLon0.09_PT057H.grib2 2026-04-29 02:56 508K
20260429T00Z_MSC_RDPS_SpecificHumidity_IsbL-0275_RLatLon0.09_PT057H.grib2 2026-04-29 02:56 470K
20260429T00Z_MSC_RDPS_SpecificHumidity_IsbL-0300_RLatLon0.09_PT057H.grib2 2026-04-29 02:56 573K
20260429T00Z_MSC_RDPS_SpecificHumidity_IsbL-0350_RLatLon0.09_PT057H.grib2 2026-04-29 02:56 439K
20260429T00Z_MSC_RDPS_SpecificHumidity_IsbL-0400_RLatLon0.09_PT057H.grib2 2026-04-29 02:56 516K
20260429T00Z_MSC_RDPS_SpecificHumidity_IsbL-0450_RLatLon0.09_PT057H.grib2 2026-04-29 02:56 571K
20260429T00Z_MSC_RDPS_SpecificHumidity_IsbL-0500_RLatLon0.09_PT057H.grib2 2026-04-29 02:56 505K
20260429T00Z_MSC_RDPS_SpecificHumidity_IsbL-0550_RLatLon0.09_PT057H.grib2 2026-04-29 02:56 576K
20260429T00Z_MSC_RDPS_SpecificHumidity_IsbL-0600_RLatLon0.09_PT057H.grib2 2026-04-29 02:56 630K
20260429T00Z_MSC_RDPS_SpecificHumidity_IsbL-0650_RLatLon0.09_PT057H.grib2 2026-04-29 02:56 546K
20260429T00Z_MSC_RDPS_SpecificHumidity_IsbL-0700_RLatLon0.09_PT057H.grib2 2026-04-29 02:56 589K
20260429T00Z_MSC_RDPS_SpecificHumidity_IsbL-0750_RLatLon0.09_PT057H.grib2 2026-04-29 02:56 641K
20260429T00Z_MSC_RDPS_SpecificHumidity_IsbL-0800_RLatLon0.09_PT057H.grib2 2026-04-29 02:56 717K
20260429T00Z_MSC_RDPS_SpecificHumidity_IsbL-0850_RLatLon0.09_PT057H.grib2 2026-04-29 02:56 792K
20260429T00Z_MSC_RDPS_SpecificHumidity_IsbL-0875_RLatLon0.09_PT057H.grib2 2026-04-29 02:56 821K
20260429T00Z_MSC_RDPS_SpecificHumidity_IsbL-0900_RLatLon0.09_PT057H.grib2 2026-04-29 02:56 835K
20260429T00Z_MSC_RDPS_SpecificHumidity_IsbL-0925_RLatLon0.09_PT057H.grib2 2026-04-29 02:56 839K
20260429T00Z_MSC_RDPS_SpecificHumidity_IsbL-0950_RLatLon0.09_PT057H.grib2 2026-04-29 02:56 842K
20260429T00Z_MSC_RDPS_SpecificHumidity_IsbL-0970_RLatLon0.09_PT057H.grib2 2026-04-29 02:56 832K
20260429T00Z_MSC_RDPS_SpecificHumidity_IsbL-0985_RLatLon0.09_PT057H.grib2 2026-04-29 02:56 681K
20260429T00Z_MSC_RDPS_SpecificHumidity_IsbL-1000_RLatLon0.09_PT057H.grib2 2026-04-29 02:56 674K
20260429T00Z_MSC_RDPS_SpecificHumidity_IsbL-1015_RLatLon0.09_PT057H.grib2 2026-04-29 02:56 663K
20260429T00Z_MSC_RDPS_SpecificHumidity_Sfc_RLatLon0.09_PT057H.grib2 2026-04-29 02:56 296K
20260429T00Z_MSC_RDPS_StormRelativeHelicity_EtaL-10000_RLatLon0.09_PT057H.grib2 2026-04-29 02:56 1.1M
20260429T00Z_MSC_RDPS_StormSeverityIndex_EtaL-10000_RLatLon0.09_PT057H.grib2 2026-04-29 02:56 1.2M
20260429T00Z_MSC_RDPS_Thickness_IsbL-0850to0700_RLatLon0.09_PT057H.grib2 2026-04-29 02:56 176K
20260429T00Z_MSC_RDPS_Thickness_IsbL-1000to0500_RLatLon0.09_PT057H.grib2 2026-04-29 02:56 195K
20260429T00Z_MSC_RDPS_Thickness_IsbL-1000to0850_RLatLon0.09_PT057H.grib2 2026-04-29 02:56 258K
20260429T00Z_MSC_RDPS_TotalCloudCover_Sfc_RLatLon0.09_PT057H.grib2 2026-04-29 02:56 659K
20260429T00Z_MSC_RDPS_TotalTotalsIndex_Sfc_RLatLon0.09_PT057H.grib2 2026-04-29 02:56 2.4M
20260429T00Z_MSC_RDPS_UVIndex-ClearSky_Sfc_RLatLon0.09_PT057H.grib2 2026-04-29 02:56 113K
20260429T00Z_MSC_RDPS_UVIndex_Sfc_RLatLon0.09_PT057H.grib2 2026-04-29 02:56 198K
20260429T00Z_MSC_RDPS_UpwardLongwaveRadiationFlux_NTAtm_RLatLon0.09_PT057H.grib2 2026-04-29 02:56 482K
20260429T00Z_MSC_RDPS_UpwardShortwaveRadiationFlux_NTAtm_RLatLon0.09_PT057H.grib2 2026-04-29 02:56 158K
20260429T00Z_MSC_RDPS_VerticalVelocity_IsbL-0250_RLatLon0.09_PT057H.grib2 2026-04-29 02:56 427K
20260429T00Z_MSC_RDPS_VerticalVelocity_IsbL-0500_RLatLon0.09_PT057H.grib2 2026-04-29 02:56 538K
20260429T00Z_MSC_RDPS_VerticalVelocity_IsbL-0700_RLatLon0.09_PT057H.grib2 2026-04-29 02:56 588K
20260429T00Z_MSC_RDPS_VerticalVelocity_IsbL-0850_RLatLon0.09_PT057H.grib2 2026-04-29 02:56 655K
20260429T00Z_MSC_RDPS_VerticalWindShear_EtaL-6500_RLatLon0.09_PT057H.grib2 2026-04-29 02:56 1.2M
20260429T00Z_MSC_RDPS_WindChill_Sfc_RLatLon0.09_PT057H.grib2 2026-04-29 02:56 1.2M
20260429T00Z_MSC_RDPS_WindDir_AGL-10m_RLatLon0.09_PT057H.grib2 2026-04-29 02:56 1.0M
20260429T00Z_MSC_RDPS_WindDir_AGL-120m_RLatLon0.09_PT057H.grib2 2026-04-29 02:56 605K
20260429T00Z_MSC_RDPS_WindDir_AGL-40m_RLatLon0.09_PT057H.grib2 2026-04-29 02:56 640K
20260429T00Z_MSC_RDPS_WindDir_AGL-80m_RLatLon0.09_PT057H.grib2 2026-04-29 02:56 619K
20260429T00Z_MSC_RDPS_WindDir_IsbL-0001_RLatLon0.09_PT057H.grib2 2026-04-29 02:56 319K
20260429T00Z_MSC_RDPS_WindDir_IsbL-0005_RLatLon0.09_PT057H.grib2 2026-04-29 02:56 372K
20260429T00Z_MSC_RDPS_WindDir_IsbL-0010_RLatLon0.09_PT057H.grib2 2026-04-29 02:56 386K
20260429T00Z_MSC_RDPS_WindDir_IsbL-0020_RLatLon0.09_PT057H.grib2 2026-04-29 02:56 417K
20260429T00Z_MSC_RDPS_WindDir_IsbL-0030_RLatLon0.09_PT057H.grib2 2026-04-29 02:56 417K
20260429T00Z_MSC_RDPS_WindDir_IsbL-0050_RLatLon0.09_PT057H.grib2 2026-04-29 02:56 434K
20260429T00Z_MSC_RDPS_WindDir_IsbL-0100_RLatLon0.09_PT057H.grib2 2026-04-29 02:56 419K
20260429T00Z_MSC_RDPS_WindDir_IsbL-0150_RLatLon0.09_PT057H.grib2 2026-04-29 02:56 423K
20260429T00Z_MSC_RDPS_WindDir_IsbL-0175_RLatLon0.09_PT057H.grib2 2026-04-29 02:56 442K
20260429T00Z_MSC_RDPS_WindDir_IsbL-0200_RLatLon0.09_PT057H.grib2 2026-04-29 02:56 454K
20260429T00Z_MSC_RDPS_WindDir_IsbL-0225_RLatLon0.09_PT057H.grib2 2026-04-29 02:56 457K
20260429T00Z_MSC_RDPS_WindDir_IsbL-0250_RLatLon0.09_PT057H.grib2 2026-04-29 02:56 456K
20260429T00Z_MSC_RDPS_WindDir_IsbL-0275_RLatLon0.09_PT057H.grib2 2026-04-29 02:56 478K
20260429T00Z_MSC_RDPS_WindDir_IsbL-0300_RLatLon0.09_PT057H.grib2 2026-04-29 02:56 475K
20260429T00Z_MSC_RDPS_WindDir_IsbL-0350_RLatLon0.09_PT057H.grib2 2026-04-29 02:56 499K
20260429T00Z_MSC_RDPS_WindDir_IsbL-0400_RLatLon0.09_PT057H.grib2 2026-04-29 02:56 509K
20260429T00Z_MSC_RDPS_WindDir_IsbL-0450_RLatLon0.09_PT057H.grib2 2026-04-29 02:56 520K
20260429T00Z_MSC_RDPS_WindDir_IsbL-0500_RLatLon0.09_PT057H.grib2 2026-04-29 02:56 534K
20260429T00Z_MSC_RDPS_WindDir_IsbL-0550_RLatLon0.09_PT057H.grib2 2026-04-29 02:56 554K
20260429T00Z_MSC_RDPS_WindDir_IsbL-0600_RLatLon0.09_PT057H.grib2 2026-04-29 02:56 582K
20260429T00Z_MSC_RDPS_WindDir_IsbL-0650_RLatLon0.09_PT057H.grib2 2026-04-29 02:56 619K
20260429T00Z_MSC_RDPS_WindDir_IsbL-0700_RLatLon0.09_PT057H.grib2 2026-04-29 02:56 664K
20260429T00Z_MSC_RDPS_WindDir_IsbL-0750_RLatLon0.09_PT057H.grib2 2026-04-29 02:56 710K
20260429T00Z_MSC_RDPS_WindDir_IsbL-0800_RLatLon0.09_PT057H.grib2 2026-04-29 02:56 772K
20260429T00Z_MSC_RDPS_WindDir_IsbL-0850_RLatLon0.09_PT057H.grib2 2026-04-29 02:56 846K
20260429T00Z_MSC_RDPS_WindDir_IsbL-0875_RLatLon0.09_PT057H.grib2 2026-04-29 02:56 879K
20260429T00Z_MSC_RDPS_WindDir_IsbL-0900_RLatLon0.09_PT057H.grib2 2026-04-29 02:56 899K
20260429T00Z_MSC_RDPS_WindDir_IsbL-0925_RLatLon0.09_PT057H.grib2 2026-04-29 02:56 910K
20260429T00Z_MSC_RDPS_WindDir_IsbL-0950_RLatLon0.09_PT057H.grib2 2026-04-29 02:56 915K
20260429T00Z_MSC_RDPS_WindDir_IsbL-0970_RLatLon0.09_PT057H.grib2 2026-04-29 02:56 921K
20260429T00Z_MSC_RDPS_WindDir_IsbL-0985_RLatLon0.09_PT057H.grib2 2026-04-29 02:56 931K
20260429T00Z_MSC_RDPS_WindDir_IsbL-1000_RLatLon0.09_PT057H.grib2 2026-04-29 02:56 948K
20260429T00Z_MSC_RDPS_WindDir_IsbL-1015_RLatLon0.09_PT057H.grib2 2026-04-29 02:56 965K
20260429T00Z_MSC_RDPS_WindGust-Max_AGL-10m_RLatLon0.09_PT057H.grib2 2026-04-29 02:56 1.0M
20260429T00Z_MSC_RDPS_WindGust-Min_AGL-10m_RLatLon0.09_PT057H.grib2 2026-04-29 02:56 968K
20260429T00Z_MSC_RDPS_WindGust_AGL-10m_RLatLon0.09_PT057H.grib2 2026-04-29 02:56 1.0M
20260429T00Z_MSC_RDPS_WindSpeed_AGL-10m_RLatLon0.09_PT057H.grib2 2026-04-29 02:56 837K
20260429T00Z_MSC_RDPS_WindSpeed_AGL-120m_RLatLon0.09_PT057H.grib2 2026-04-29 02:56 539K
20260429T00Z_MSC_RDPS_WindSpeed_AGL-40m_RLatLon0.09_PT057H.grib2 2026-04-29 02:56 670K
20260429T00Z_MSC_RDPS_WindSpeed_AGL-80m_RLatLon0.09_PT057H.grib2 2026-04-29 02:56 540K
20260429T00Z_MSC_RDPS_WindSpeed_IsbL-0001_RLatLon0.09_PT057H.grib2 2026-04-29 02:56 332K
20260429T00Z_MSC_RDPS_WindSpeed_IsbL-0005_RLatLon0.09_PT057H.grib2 2026-04-29 02:56 384K
20260429T00Z_MSC_RDPS_WindSpeed_IsbL-0010_RLatLon0.09_PT057H.grib2 2026-04-29 02:56 398K
20260429T00Z_MSC_RDPS_WindSpeed_IsbL-0020_RLatLon0.09_PT057H.grib2 2026-04-29 02:56 322K
20260429T00Z_MSC_RDPS_WindSpeed_IsbL-0030_RLatLon0.09_PT057H.grib2 2026-04-29 02:56 322K
20260429T00Z_MSC_RDPS_WindSpeed_IsbL-0050_RLatLon0.09_PT057H.grib2 2026-04-29 02:56 352K
20260429T00Z_MSC_RDPS_WindSpeed_IsbL-0100_RLatLon0.09_PT057H.grib2 2026-04-29 02:56 472K
20260429T00Z_MSC_RDPS_WindSpeed_IsbL-0150_RLatLon0.09_PT057H.grib2 2026-04-29 02:56 375K
20260429T00Z_MSC_RDPS_WindSpeed_IsbL-0175_RLatLon0.09_PT057H.grib2 2026-04-29 02:56 421K
20260429T00Z_MSC_RDPS_WindSpeed_IsbL-0200_RLatLon0.09_PT057H.grib2 2026-04-29 02:56 438K
20260429T00Z_MSC_RDPS_WindSpeed_IsbL-0225_RLatLon0.09_PT057H.grib2 2026-04-29 02:56 446K
20260429T00Z_MSC_RDPS_WindSpeed_IsbL-0250_RLatLon0.09_PT057H.grib2 2026-04-29 02:56 449K
20260429T00Z_MSC_RDPS_WindSpeed_IsbL-0275_RLatLon0.09_PT057H.grib2 2026-04-29 02:56 467K
20260429T00Z_MSC_RDPS_WindSpeed_IsbL-0300_RLatLon0.09_PT057H.grib2 2026-04-29 02:56 464K
20260429T00Z_MSC_RDPS_WindSpeed_IsbL-0350_RLatLon0.09_PT057H.grib2 2026-04-29 02:56 474K
20260429T00Z_MSC_RDPS_WindSpeed_IsbL-0400_RLatLon0.09_PT057H.grib2 2026-04-29 02:56 476K
20260429T00Z_MSC_RDPS_WindSpeed_IsbL-0450_RLatLon0.09_PT057H.grib2 2026-04-29 02:56 459K
20260429T00Z_MSC_RDPS_WindSpeed_IsbL-0500_RLatLon0.09_PT057H.grib2 2026-04-29 02:56 459K
20260429T00Z_MSC_RDPS_WindSpeed_IsbL-0550_RLatLon0.09_PT057H.grib2 2026-04-29 02:56 458K
20260429T00Z_MSC_RDPS_WindSpeed_IsbL-0600_RLatLon0.09_PT057H.grib2 2026-04-29 02:56 466K
20260429T00Z_MSC_RDPS_WindSpeed_IsbL-0650_RLatLon0.09_PT057H.grib2 2026-04-29 02:56 605K
20260429T00Z_MSC_RDPS_WindSpeed_IsbL-0700_RLatLon0.09_PT057H.grib2 2026-04-29 02:56 631K
20260429T00Z_MSC_RDPS_WindSpeed_IsbL-0750_RLatLon0.09_PT057H.grib2 2026-04-29 02:56 704K
20260429T00Z_MSC_RDPS_WindSpeed_IsbL-0800_RLatLon0.09_PT057H.grib2 2026-04-29 02:56 749K
20260429T00Z_MSC_RDPS_WindSpeed_IsbL-0850_RLatLon0.09_PT057H.grib2 2026-04-29 02:56 808K
20260429T00Z_MSC_RDPS_WindSpeed_IsbL-0875_RLatLon0.09_PT057H.grib2 2026-04-29 02:56 830K
20260429T00Z_MSC_RDPS_WindSpeed_IsbL-0900_RLatLon0.09_PT057H.grib2 2026-04-29 02:56 848K
20260429T00Z_MSC_RDPS_WindSpeed_IsbL-0925_RLatLon0.09_PT057H.grib2 2026-04-29 02:56 861K
20260429T00Z_MSC_RDPS_WindSpeed_IsbL-0950_RLatLon0.09_PT057H.grib2 2026-04-29 02:56 861K
20260429T00Z_MSC_RDPS_WindSpeed_IsbL-0970_RLatLon0.09_PT057H.grib2 2026-04-29 02:56 860K
20260429T00Z_MSC_RDPS_WindSpeed_IsbL-0985_RLatLon0.09_PT057H.grib2 2026-04-29 02:56 853K
20260429T00Z_MSC_RDPS_WindSpeed_IsbL-1000_RLatLon0.09_PT057H.grib2 2026-04-29 02:56 845K
20260429T00Z_MSC_RDPS_WindSpeed_IsbL-1015_RLatLon0.09_PT057H.grib2 2026-04-29 02:56 836K
20260429T00Z_MSC_RDPS_WindU_AGL-10m_RLatLon0.09_PT057H.grib2 2026-04-29 02:56 431K
20260429T00Z_MSC_RDPS_WindU_AGL-120m_RLatLon0.09_PT057H.grib2 2026-04-29 02:56 537K
20260429T00Z_MSC_RDPS_WindU_AGL-40m_RLatLon0.09_PT057H.grib2 2026-04-29 02:56 539K
20260429T00Z_MSC_RDPS_WindU_AGL-80m_RLatLon0.09_PT057H.grib2 2026-04-29 02:56 538K
20260429T00Z_MSC_RDPS_WindU_IsbL-0001_RLatLon0.09_PT057H.grib2 2026-04-29 02:56 243K
20260429T00Z_MSC_RDPS_WindU_IsbL-0005_RLatLon0.09_PT057H.grib2 2026-04-29 02:56 288K
20260429T00Z_MSC_RDPS_WindU_IsbL-0010_RLatLon0.09_PT057H.grib2 2026-04-29 02:56 299K
20260429T00Z_MSC_RDPS_WindU_IsbL-0020_RLatLon0.09_PT057H.grib2 2026-04-29 02:56 315K
20260429T00Z_MSC_RDPS_WindU_IsbL-0030_RLatLon0.09_PT057H.grib2 2026-04-29 02:56 315K
20260429T00Z_MSC_RDPS_WindU_IsbL-0050_RLatLon0.09_PT057H.grib2 2026-04-29 02:56 344K
20260429T00Z_MSC_RDPS_WindU_IsbL-0100_RLatLon0.09_PT057H.grib2 2026-04-29 02:56 428K
20260429T00Z_MSC_RDPS_WindU_IsbL-0150_RLatLon0.09_PT057H.grib2 2026-04-29 02:56 392K
20260429T00Z_MSC_RDPS_WindU_IsbL-0175_RLatLon0.09_PT057H.grib2 2026-04-29 02:56 414K
20260429T00Z_MSC_RDPS_WindU_IsbL-0200_RLatLon0.09_PT057H.grib2 2026-04-29 02:56 432K
20260429T00Z_MSC_RDPS_WindU_IsbL-0225_RLatLon0.09_PT057H.grib2 2026-04-29 02:56 340K
20260429T00Z_MSC_RDPS_WindU_IsbL-0250_RLatLon0.09_PT057H.grib2 2026-04-29 02:56 340K
20260429T00Z_MSC_RDPS_WindU_IsbL-0275_RLatLon0.09_PT057H.grib2 2026-04-29 02:56 355K
20260429T00Z_MSC_RDPS_WindU_IsbL-0300_RLatLon0.09_PT057H.grib2 2026-04-29 02:56 351K
20260429T00Z_MSC_RDPS_WindU_IsbL-0350_RLatLon0.09_PT057H.grib2 2026-04-29 02:56 359K
20260429T00Z_MSC_RDPS_WindU_IsbL-0400_RLatLon0.09_PT057H.grib2 2026-04-29 02:56 361K
20260429T00Z_MSC_RDPS_WindU_IsbL-0450_RLatLon0.09_PT057H.grib2 2026-04-29 02:56 464K
20260429T00Z_MSC_RDPS_WindU_IsbL-0500_RLatLon0.09_PT057H.grib2 2026-04-29 02:56 465K
20260429T00Z_MSC_RDPS_WindU_IsbL-0550_RLatLon0.09_PT057H.grib2 2026-04-29 02:56 466K
20260429T00Z_MSC_RDPS_WindU_IsbL-0600_RLatLon0.09_PT057H.grib2 2026-04-29 02:56 474K
20260429T00Z_MSC_RDPS_WindU_IsbL-0650_RLatLon0.09_PT057H.grib2 2026-04-29 02:56 476K
20260429T00Z_MSC_RDPS_WindU_IsbL-0700_RLatLon0.09_PT057H.grib2 2026-04-29 02:56 500K
20260429T00Z_MSC_RDPS_WindU_IsbL-0750_RLatLon0.09_PT057H.grib2 2026-04-29 02:56 526K
20260429T00Z_MSC_RDPS_WindU_IsbL-0800_RLatLon0.09_PT057H.grib2 2026-04-29 02:56 565K
20260429T00Z_MSC_RDPS_WindU_IsbL-0850_RLatLon0.09_PT057H.grib2 2026-04-29 02:56 617K
20260429T00Z_MSC_RDPS_WindU_IsbL-0875_RLatLon0.09_PT057H.grib2 2026-04-29 02:56 635K
20260429T00Z_MSC_RDPS_WindU_IsbL-0900_RLatLon0.09_PT057H.grib2 2026-04-29 02:56 649K
20260429T00Z_MSC_RDPS_WindU_IsbL-0925_RLatLon0.09_PT057H.grib2 2026-04-29 02:56 658K
20260429T00Z_MSC_RDPS_WindU_IsbL-0950_RLatLon0.09_PT057H.grib2 2026-04-29 02:56 659K
20260429T00Z_MSC_RDPS_WindU_IsbL-0970_RLatLon0.09_PT057H.grib2 2026-04-29 02:56 796K
20260429T00Z_MSC_RDPS_WindU_IsbL-0985_RLatLon0.09_PT057H.grib2 2026-04-29 02:56 791K
20260429T00Z_MSC_RDPS_WindU_IsbL-1000_RLatLon0.09_PT057H.grib2 2026-04-29 02:56 786K
20260429T00Z_MSC_RDPS_WindU_IsbL-1015_RLatLon0.09_PT057H.grib2 2026-04-29 02:56 825K
20260429T00Z_MSC_RDPS_WindV_AGL-10m_RLatLon0.09_PT057H.grib2 2026-04-29 02:56 428K
20260429T00Z_MSC_RDPS_WindV_AGL-120m_RLatLon0.09_PT057H.grib2 2026-04-29 02:56 533K
20260429T00Z_MSC_RDPS_WindV_AGL-40m_RLatLon0.09_PT057H.grib2 2026-04-29 02:56 534K
20260429T00Z_MSC_RDPS_WindV_AGL-80m_RLatLon0.09_PT057H.grib2 2026-04-29 02:56 533K
20260429T00Z_MSC_RDPS_WindV_IsbL-0001_RLatLon0.09_PT057H.grib2 2026-04-29 02:56 246K
20260429T00Z_MSC_RDPS_WindV_IsbL-0005_RLatLon0.09_PT057H.grib2 2026-04-29 02:56 288K
20260429T00Z_MSC_RDPS_WindV_IsbL-0010_RLatLon0.09_PT057H.grib2 2026-04-29 02:56 302K
20260429T00Z_MSC_RDPS_WindV_IsbL-0020_RLatLon0.09_PT057H.grib2 2026-04-29 02:56 318K
20260429T00Z_MSC_RDPS_WindV_IsbL-0030_RLatLon0.09_PT057H.grib2 2026-04-29 02:56 317K
20260429T00Z_MSC_RDPS_WindV_IsbL-0050_RLatLon0.09_PT057H.grib2 2026-04-29 02:56 343K
20260429T00Z_MSC_RDPS_WindV_IsbL-0100_RLatLon0.09_PT057H.grib2 2026-04-29 02:56 426K
20260429T00Z_MSC_RDPS_WindV_IsbL-0150_RLatLon0.09_PT057H.grib2 2026-04-29 02:56 390K
20260429T00Z_MSC_RDPS_WindV_IsbL-0175_RLatLon0.09_PT057H.grib2 2026-04-29 02:56 415K
20260429T00Z_MSC_RDPS_WindV_IsbL-0200_RLatLon0.09_PT057H.grib2 2026-04-29 02:56 333K
20260429T00Z_MSC_RDPS_WindV_IsbL-0225_RLatLon0.09_PT057H.grib2 2026-04-29 02:56 338K
20260429T00Z_MSC_RDPS_WindV_IsbL-0250_RLatLon0.09_PT057H.grib2 2026-04-29 02:56 338K
20260429T00Z_MSC_RDPS_WindV_IsbL-0275_RLatLon0.09_PT057H.grib2 2026-04-29 02:56 353K
20260429T00Z_MSC_RDPS_WindV_IsbL-0300_RLatLon0.09_PT057H.grib2 2026-04-29 02:56 350K
20260429T00Z_MSC_RDPS_WindV_IsbL-0350_RLatLon0.09_PT057H.grib2 2026-04-29 02:56 461K
20260429T00Z_MSC_RDPS_WindV_IsbL-0400_RLatLon0.09_PT057H.grib2 2026-04-29 02:56 462K
20260429T00Z_MSC_RDPS_WindV_IsbL-0450_RLatLon0.09_PT057H.grib2 2026-04-29 02:56 463K
20260429T00Z_MSC_RDPS_WindV_IsbL-0500_RLatLon0.09_PT057H.grib2 2026-04-29 02:56 462K
20260429T00Z_MSC_RDPS_WindV_IsbL-0550_RLatLon0.09_PT057H.grib2 2026-04-29 02:56 463K
20260429T00Z_MSC_RDPS_WindV_IsbL-0600_RLatLon0.09_PT057H.grib2 2026-04-29 02:56 453K
20260429T00Z_MSC_RDPS_WindV_IsbL-0650_RLatLon0.09_PT057H.grib2 2026-04-29 02:56 473K
20260429T00Z_MSC_RDPS_WindV_IsbL-0700_RLatLon0.09_PT057H.grib2 2026-04-29 02:56 496K
20260429T00Z_MSC_RDPS_WindV_IsbL-0750_RLatLon0.09_PT057H.grib2 2026-04-29 02:56 521K
20260429T00Z_MSC_RDPS_WindV_IsbL-0800_RLatLon0.09_PT057H.grib2 2026-04-29 02:56 560K
20260429T00Z_MSC_RDPS_WindV_IsbL-0850_RLatLon0.09_PT057H.grib2 2026-04-29 02:56 613K
20260429T00Z_MSC_RDPS_WindV_IsbL-0875_RLatLon0.09_PT057H.grib2 2026-04-29 02:56 633K
20260429T00Z_MSC_RDPS_WindV_IsbL-0900_RLatLon0.09_PT057H.grib2 2026-04-29 02:56 648K
20260429T00Z_MSC_RDPS_WindV_IsbL-0925_RLatLon0.09_PT057H.grib2 2026-04-29 02:56 796K
20260429T00Z_MSC_RDPS_WindV_IsbL-0950_RLatLon0.09_PT057H.grib2 2026-04-29 02:56 796K
20260429T00Z_MSC_RDPS_WindV_IsbL-0970_RLatLon0.09_PT057H.grib2 2026-04-29 02:56 792K
20260429T00Z_MSC_RDPS_WindV_IsbL-0985_RLatLon0.09_PT057H.grib2 2026-04-29 02:56 786K
20260429T00Z_MSC_RDPS_WindV_IsbL-1000_RLatLon0.09_PT057H.grib2 2026-04-29 02:56 825K
20260429T00Z_MSC_RDPS_WindV_IsbL-1015_RLatLon0.09_PT057H.grib2 2026-04-29 02:56 818K